Airfield :
LOGIN :

Register | Disclaimer

   EN    FR    IT 

 










Legend :    VFR   Marginal VFR   IFR   Intensive IFR   Very Intensive IFR
Visi :
Ceiling :
>= 8 km
>= 3000ft
5 to 8 km
1000 to 3000 ft
1500m to 5 km
500 to 1000 ft
800 to 1500m
200 to 500 ft
< 800m
< 200 ft
Symbols :   Thunderstorms  Fog  Heavy snow  Heavy precipitations  Wind > 20 kt
SIGMETs :     Misc.  Thunderstorms  Icing  Turbulence  Mountain Waves  Volcanic Ashes






- Airport Elevation : 256 ft
- IATA code : CFR


LFRK - Caen

CURRENT METAR :
  • 290900Z AUTO 03014KT 360V060 9999 FEW038 SCT045 OVC054 06/M03 Q1032 BECMG 04015G30KT

EXPIRED METARs :
  • 290830Z AUTO 02018KT 9999 FEW039 BKN047 OVC054 05/M02 Q1032 BECMG 04015G30KT
  • 290800Z AUTO 03017KT 9999 FEW024 SCT031 BKN041 05/M01 Q1032 BECMG 04015G30KT
  • 290730Z AUTO 03016G29KT 350V050 9999 FEW031 SCT041 OVC050 06/M01 Q1032 NOSIG
  • 290700Z AUTO 04018G32KT 360V060 9999 BKN045 OVC052 05/M02 Q1031 NOSIG
  • 290630Z AUTO 03016G30KT 9999 FEW034 OVC052 06/M02 Q1031 NOSIG

TAF TAF LFRK
Valid from the 29 at 09:00 until the 29 at 18:00 UTC


290800Z 2909/2918 04015G30KT 9999 SCT030
TEMPO 2912/2918 04020G40KT
Met : +33 2 31 26 68 11



MET'MAP, your aeronautical weather chart ! - Copyright ORBIFLY December 2007 - Disclaimer

ORBIFLY MET'MAP TEAM :

Programming & Development : Alexandra Zaïnal
Concept & original design : Baudouin d'Aumeries
Assistance for programming : Marc-Olivier Méhu
Technical & hardware support : Manuel Goepfert

Contact : metmap@orbifly.com




SOURCES & CREDITS :

   NOAA